createdAt,value
2023-05-16T00:00:09.307Z,98402.44
2023-05-16T00:02:39.990Z,98400.28
2023-05-16T00:05:10.666Z,98405.63
2023-05-16T00:07:39.407Z,98407.53
2023-05-16T00:10:11.327Z,98415.63
2023-05-16T00:12:40.864Z,98414.00
2023-05-16T00:15:14.228Z,98423.69
2023-05-16T00:17:43.821Z,98418.31
2023-05-16T00:20:14.350Z,98434.16
2023-05-16T00:22:43.031Z,98434.44
2023-05-16T00:25:13.130Z,98434.44
2023-05-16T00:27:41.851Z,98437.66
2023-05-16T00:30:12.219Z,98436.34
2023-05-16T00:32:41.138Z,98439.28
2023-05-16T00:35:10.765Z,98437.66
2023-05-16T00:37:40.158Z,98433.34
2023-05-16T00:40:10.464Z,98431.22
2023-05-16T00:42:41.047Z,98438.19
2023-05-16T00:45:11.441Z,98443.03
2023-05-16T00:47:40.478Z,98445.41
2023-05-16T00:50:10.210Z,98458.00
2023-05-16T00:52:39.128Z,98455.31
2023-05-16T00:55:10.844Z,98459.59
2023-05-16T00:57:41.326Z,98457.44
2023-05-16T01:00:12.114Z,98461.97
2023-05-16T01:02:41.280Z,98451.50
2023-05-16T01:05:10.905Z,98461.16
2023-05-16T01:07:39.652Z,98461.69
2023-05-16T01:10:11.433Z,98462.19
2023-05-16T01:12:59.068Z,98464.38
2023-05-16T01:15:31.769Z,98472.69
2023-05-16T01:18:13.715Z,98476.69
2023-05-16T01:20:48.497Z,98473.44
2023-05-16T01:23:36.680Z,98477.25
2023-05-16T01:26:21.504Z,98475.31
2023-05-16T01:28:52.669Z,98473.91
2023-05-16T01:31:22.013Z,98474.41
2023-05-16T01:33:51.405Z,98479.53
2023-05-16T01:36:27.266Z,98487.50
2023-05-16T01:39:12.804Z,98486.22
2023-05-16T01:41:55.070Z,98488.34
2023-05-16T01:44:34.777Z,98486.78
2023-05-16T01:47:09.598Z,98477.88
2023-05-16T01:49:47.677Z,98482.91
2023-05-16T01:52:24.779Z,98491.75
2023-05-16T01:54:59.034Z,98494.91
2023-05-16T01:57:31.968Z,98492.56
2023-05-16T02:00:00.681Z,98499.25
2023-05-16T02:02:29.415Z,98496.25
2023-05-16T02:04:58.096Z,98509.63
2023-05-16T02:07:27.033Z,98496.50
2023-05-16T02:09:55.764Z,98499.75
2023-05-16T02:12:24.439Z,98501.63
2023-05-16T02:14:54.547Z,98497.84
2023-05-16T02:17:23.284Z,98490.34
2023-05-16T02:19:52.346Z,98498.38
2023-05-16T02:22:21.387Z,98502.66
2023-05-16T02:24:50.088Z,98501.47
2023-05-16T02:27:21.345Z,98494.84
2023-05-16T02:29:49.955Z,98498.06
2023-05-16T02:32:20.145Z,98496.16
2023-05-16T02:34:48.932Z,98499.38
2023-05-16T02:37:17.601Z,98495.66
2023-05-16T02:39:46.190Z,98495.41
2023-05-16T02:42:14.881Z,98507.22
2023-05-16T02:44:43.699Z,98510.97
2023-05-16T02:47:12.394Z,98511.41
2023-05-16T02:49:42.435Z,98515.22
2023-05-16T02:52:11.871Z,98521.13
2023-05-16T02:54:41.716Z,98524.03
2023-05-16T02:57:10.739Z,98532.09
2023-05-16T02:59:39.772Z,98529.34
2023-05-16T03:02:10.803Z,98531.53
2023-05-16T03:04:41.372Z,98533.69
2023-05-16T03:07:10.435Z,98533.19
2023-05-16T03:09:39.451Z,98540.72
2023-05-16T03:12:09.168Z,98540.22
2023-05-16T03:14:38.257Z,98545.59
2023-05-16T03:17:06.938Z,98545.59
2023-05-16T03:19:35.967Z,98544.47
2023-05-16T03:22:06.629Z,98543.94
2023-05-16T03:24:35.703Z,98546.09
2023-05-16T03:27:05.848Z,98553.81
2023-05-16T03:29:35.376Z,98554.69
2023-05-16T03:32:04.240Z,98549.03
2023-05-16T03:34:33.014Z,98555.16
2023-05-16T03:37:01.775Z,98558.66
2023-05-16T03:39:31.944Z,98568.09
2023-05-16T03:42:00.655Z,98571.06
2023-05-16T03:44:29.373Z,98576.22
2023-05-16T03:46:58.386Z,98574.63
2023-05-16T03:49:29.347Z,98585.41
2023-05-16T03:52:25.130Z,98593.72
2023-05-16T03:56:02.705Z,98588.00
2023-05-16T03:58:31.590Z,98593.47
2023-05-16T04:01:01.048Z,98590.56
2023-05-16T04:03:30.416Z,98593.50
2023-05-16T04:06:01.991Z,98593.50
2023-05-16T04:08:31.370Z,98596.25
2023-05-16T04:11:38.826Z,98602.78
2023-05-16T04:14:45.045Z,98610.91
2023-05-16T04:17:23.904Z,98612.00
2023-05-16T04:19:52.612Z,98616.09
2023-05-16T04:22:23.301Z,98620.66
2023-05-16T04:25:41.456Z,98624.47
2023-05-16T04:28:12.018Z,98627.66
2023-05-16T04:30:40.662Z,98638.94
2023-05-16T04:33:28.180Z,98637.84
2023-05-16T04:35:59.442Z,98643.22
2023-05-16T04:38:28.448Z,98646.41
2023-05-16T04:40:57.079Z,98648.88
2023-05-16T04:43:28.120Z,98661.28
2023-05-16T04:45:59.088Z,98662.09
2023-05-16T04:48:28.101Z,98660.53
2023-05-16T04:50:57.284Z,98647.56
2023-05-16T04:53:26.128Z,98651.34
2023-05-16T04:55:56.152Z,98646.38
2023-05-16T04:58:26.430Z,98650.06
2023-05-16T05:00:56.819Z,98661.91
2023-05-16T05:03:25.819Z,98661.44
2023-05-16T05:05:54.438Z,98653.41
2023-05-16T05:08:23.825Z,98654.63
2023-05-16T05:10:52.413Z,98661.28
2023-05-16T05:13:21.155Z,98668.50
2023-05-16T05:15:52.443Z,98671.19
2023-05-16T05:18:22.247Z,98678.44
2023-05-16T05:20:52.756Z,98677.09
2023-05-16T05:23:21.639Z,98679.22
2023-05-16T05:25:50.321Z,98680.84
2023-05-16T05:28:19.091Z,98677.31
2023-05-16T05:30:48.478Z,98683.81
2023-05-16T05:33:19.872Z,98685.38
2023-05-16T05:35:49.017Z,98690.94
2023-05-16T05:38:17.645Z,98683.16
2023-05-16T05:40:46.435Z,98692.63
2023-05-16T05:43:15.123Z,98683.19
2023-05-16T05:45:44.376Z,98696.06
2023-05-16T05:48:14.188Z,98695.84
2023-05-16T05:50:44.393Z,98702.28
2023-05-16T05:53:13.100Z,98706.09
2023-05-16T05:55:42.353Z,98703.44
2023-05-16T05:58:11.147Z,98709.72
2023-05-16T06:00:39.859Z,98708.41
2023-05-16T06:03:08.554Z,98719.16
2023-05-16T06:05:37.337Z,98727.50
2023-05-16T06:08:07.435Z,98725.84
2023-05-16T06:10:36.145Z,98723.97
2023-05-16T06:13:04.773Z,98733.06
2023-05-16T06:15:33.534Z,98731.59
2023-05-16T06:18:02.239Z,98738.84
2023-05-16T06:20:30.953Z,98738.59
2023-05-16T06:23:01.137Z,98746.66
2023-05-16T06:25:31.751Z,98750.13
2023-05-16T06:28:00.416Z,98744.38
2023-05-16T06:30:29.185Z,98746.13
2023-05-16T06:32:58.150Z,98736.09
2023-05-16T06:35:27.386Z,98745.91
2023-05-16T06:37:56.180Z,98746.84
2023-05-16T06:40:24.878Z,98751.03
2023-05-16T06:42:54.970Z,98755.34
2023-05-16T06:45:23.663Z,98752.84
2023-05-16T06:47:53.548Z,98756.63
2023-05-16T06:50:23.352Z,98760.66
2023-05-16T06:52:52.070Z,98753.16
2023-05-16T06:55:20.906Z,98761.78
2023-05-16T06:57:49.596Z,98762.78
2023-05-16T07:00:21.549Z,98766.75
2023-05-16T07:02:50.501Z,98764.59
2023-05-16T07:05:19.388Z,98764.88
2023-05-16T07:07:49.591Z,98752.03
2023-05-16T07:10:18.330Z,98768.63
2023-05-16T07:12:48.149Z,98770.06
2023-05-16T07:15:18.497Z,98767.97
2023-05-16T07:17:47.215Z,98777.09
2023-05-16T07:20:16.000Z,98778.88
2023-05-16T07:22:44.740Z,98779.09
2023-05-16T07:25:14.702Z,98780.34
2023-05-16T07:27:45.247Z,98785.25
2023-05-16T07:30:15.935Z,98784.09
2023-05-16T07:32:46.122Z,98789.47
2023-05-16T07:35:14.893Z,98788.34
2023-05-16T07:37:43.686Z,98795.78
2023-05-16T07:40:13.729Z,98793.53
2023-05-16T07:42:42.421Z,98793.72
2023-05-16T07:45:11.731Z,98794.53
2023-05-16T07:47:40.655Z,98796.97
2023-05-16T07:50:12.018Z,98799.91
2023-05-16T07:52:40.776Z,98804.28
2023-05-16T07:55:10.990Z,98798.91
2023-05-16T07:57:39.801Z,98801.00
2023-05-16T08:00:10.660Z,98793.22
2023-05-16T08:02:42.801Z,98802.97
2023-05-16T08:05:13.117Z,98807.59
2023-05-16T08:07:41.844Z,98810.03
2023-05-16T08:10:13.287Z,98803.50
2023-05-16T08:12:42.990Z,98806.19
2023-05-16T08:15:12.485Z,98816.56
2023-05-16T08:17:41.231Z,98826.22
2023-05-16T08:20:13.030Z,98837.13
2023-05-16T08:22:41.718Z,98839.22
2023-05-16T08:25:11.119Z,98835.66
2023-05-16T08:27:39.778Z,98842.34
2023-05-16T08:30:11.441Z,98841.25
2023-05-16T08:32:40.502Z,98837.63
2023-05-16T08:35:11.137Z,98841.66
2023-05-16T08:37:41.431Z,98849.06
2023-05-16T08:40:12.309Z,98861.66
2023-05-16T08:42:42.827Z,98865.41
2023-05-16T08:45:14.581Z,98861.66
2023-05-16T08:47:46.677Z,98870.28
2023-05-16T08:50:17.663Z,98872.25
2023-05-16T08:52:53.306Z,98870.47
2023-05-16T08:55:23.359Z,98869.69
2023-05-16T08:57:52.552Z,98875.66
2023-05-16T09:00:23.148Z,98873.44
2023-05-16T09:02:52.061Z,98873.88
2023-05-16T09:05:21.100Z,98872.38
2023-05-16T09:07:51.362Z,98878.59
2023-05-16T09:10:20.934Z,98870.75
2023-05-16T09:12:49.672Z,98877.19
2023-05-16T09:15:21.545Z,98879.78
2023-05-16T09:17:50.634Z,98882.09
2023-05-16T09:20:21.390Z,98882.00
2023-05-16T09:22:56.672Z,98884.75
2023-05-16T09:25:31.035Z,98890.28
2023-05-16T09:28:03.597Z,98890.63
2023-05-16T09:30:35.369Z,98895.28
2023-05-16T09:33:04.408Z,98903.25
2023-05-16T09:38:06.606Z,98905.94
2023-05-16T09:40:35.507Z,98906.91
2023-05-16T09:43:06.401Z,98913.66
2023-05-16T09:45:36.619Z,98908.84
2023-05-16T09:48:08.392Z,98904.53
2023-05-16T09:50:38.792Z,98909.34
2023-05-16T09:53:09.063Z,98910.16
2023-05-16T09:55:37.766Z,98909.59
2023-05-16T09:58:06.634Z,98924.94
2023-05-16T10:00:36.048Z,98916.50
2023-05-16T10:03:06.135Z,98932.00
2023-05-16T10:05:36.934Z,98926.47
2023-05-16T10:08:09.611Z,98927.69
2023-05-16T10:10:39.824Z,98919.72
2023-05-16T10:13:29.705Z,98921.34
2023-05-16T10:16:01.251Z,98926.88
2023-05-16T10:18:34.314Z,98919.47
2023-05-16T10:21:10.455Z,98916.28
2023-05-16T10:23:44.300Z,98912.03
2023-05-16T10:26:18.439Z,98920.34
2023-05-16T10:28:49.519Z,98927.66
2023-05-16T10:31:21.525Z,98919.78
2023-05-16T10:33:54.510Z,98909.56
2023-05-16T10:36:23.767Z,98915.50
2023-05-16T10:38:54.207Z,98914.19
2023-05-16T10:41:23.672Z,98921.94
2023-05-16T10:44:01.308Z,98923.56
2023-05-16T10:46:30.349Z,98919.16
2023-05-16T10:48:59.288Z,98912.81
2023-05-16T10:51:37.905Z,98909.56
2023-05-16T10:54:10.198Z,98912.63
2023-05-16T10:56:39.661Z,98909.00
2023-05-16T10:59:26.530Z,98910.31
2023-05-16T11:01:57.676Z,98908.94
2023-05-16T11:04:51.655Z,98909.75
2023-05-16T11:07:22.496Z,98908.41
2023-05-16T11:10:16.006Z,98914.66
2023-05-16T11:12:47.871Z,98912.31
2023-05-16T11:15:25.145Z,98915.25
2023-05-16T11:18:06.992Z,98923.47
2023-05-16T11:20:38.025Z,98912.78
2023-05-16T11:23:27.606Z,98907.34
2023-05-16T11:26:00.715Z,98904.56
2023-05-16T11:28:30.250Z,98892.56
2023-05-16T11:31:01.155Z,98891.81
2023-05-16T11:33:35.681Z,98894.56
2023-05-16T11:38:44.070Z,98891.06
2023-05-16T11:41:15.608Z,98883.22
2023-05-16T11:43:46.281Z,98892.06
2023-05-16T11:46:17.698Z,98882.03
2023-05-16T11:48:51.008Z,98883.66
2023-05-16T11:51:21.434Z,98888.88
2023-05-16T11:53:52.297Z,98886.22
2023-05-16T11:56:23.492Z,98886.78
2023-05-16T11:58:52.924Z,98891.09
2023-05-16T12:01:23.348Z,98886.53
2023-05-16T12:03:58.344Z,98887.03
2023-05-16T12:06:29.388Z,98890.25
2023-05-16T12:09:00.749Z,98889.69
2023-05-16T12:11:29.539Z,98892.94
2023-05-16T12:13:58.460Z,98885.91
2023-05-16T12:16:28.862Z,98880.75
2023-05-16T12:18:57.909Z,98883.16
2023-05-16T12:21:27.198Z,98888.22
2023-05-16T12:23:57.831Z,98894.91
2023-05-16T12:26:30.875Z,98901.88
2023-05-16T12:29:01.052Z,98909.84
2023-05-16T12:31:34.529Z,98911.75
2023-05-16T12:34:03.360Z,98912.28
2023-05-16T12:36:35.941Z,98914.38
2023-05-16T12:39:09.218Z,98914.66
2023-05-16T12:41:43.267Z,98923.81
2023-05-16T12:44:17.448Z,98924.81
2023-05-16T12:47:38.230Z,98925.09
2023-05-16T12:50:14.180Z,98921.97
2023-05-16T12:52:51.451Z,98917.38
2023-05-16T12:55:22.581Z,98920.41
2023-05-16T12:57:52.446Z,98921.22
2023-05-16T13:00:23.505Z,98925.56
2023-05-16T13:02:54.059Z,98919.97
2023-05-16T13:05:23.634Z,98930.06
2023-05-16T13:07:52.810Z,98930.19
2023-05-16T13:10:21.578Z,98939.72
2023-05-16T13:12:50.278Z,98934.34
2023-05-16T13:15:20.125Z,98935.88
2023-05-16T13:17:49.042Z,98943.13
2023-05-16T13:20:19.229Z,98943.13
2023-05-16T13:22:47.984Z,98939.59
2023-05-16T13:25:16.665Z,98941.97
2023-05-16T13:27:46.384Z,98944.09
2023-05-16T13:30:15.267Z,98956.19
2023-05-16T13:32:44.039Z,98961.78
2023-05-16T13:35:13.473Z,98959.53
2023-05-16T13:37:43.949Z,98969.19
2023-05-16T13:40:13.296Z,98967.25
2023-05-16T13:42:42.090Z,98971.72
2023-05-16T13:45:11.296Z,98967.47
2023-05-16T13:47:40.035Z,98964.78
2023-05-16T13:50:10.607Z,98959.84
2023-05-16T13:52:40.389Z,98962.06
2023-05-16T13:55:11.265Z,98969.28
2023-05-16T13:57:40.538Z,98973.09
2023-05-16T14:02:45.115Z,98961.38
2023-05-16T14:05:13.857Z,98957.81
2023-05-16T14:07:44.232Z,98956.50
2023-05-16T14:10:15.638Z,98953.34
2023-05-16T14:12:44.305Z,98944.53
2023-05-16T14:15:14.347Z,98948.03
2023-05-16T14:17:43.085Z,98943.28
2023-05-16T14:20:15.481Z,98948.66
2023-05-16T14:22:44.190Z,98952.13
2023-05-16T14:25:14.245Z,98960.84
2023-05-16T14:27:42.951Z,98961.97
2023-05-16T14:30:14.253Z,98959.28
2023-05-16T14:32:43.068Z,98955.78
2023-05-16T14:35:12.185Z,98950.63
2023-05-16T14:37:41.474Z,98953.34
2023-05-16T14:40:10.930Z,98951.09
2023-05-16T14:42:41.250Z,98943.25
2023-05-16T14:45:10.977Z,98952.75
2023-05-16T14:47:42.460Z,98959.19
2023-05-16T14:50:12.737Z,98981.50
2023-05-16T14:52:41.858Z,98973.41
2023-05-16T14:55:10.623Z,98988.69
2023-05-16T14:57:42.113Z,98984.88
2023-05-16T15:00:15.352Z,98992.47
2023-05-16T15:02:44.876Z,98998.06
2023-05-16T15:05:13.630Z,98993.00
2023-05-16T15:07:42.546Z,98991.44
2023-05-16T15:10:12.200Z,98999.06
2023-05-16T15:12:43.436Z,98998.53
2023-05-16T15:15:15.601Z,98991.03
2023-05-16T15:17:45.330Z,98996.91
2023-05-16T15:20:14.168Z,98982.66
2023-05-16T15:22:43.062Z,98984.91
2023-05-16T15:25:13.064Z,98982.81
2023-05-16T15:27:45.827Z,98984.38
2023-05-16T15:30:15.534Z,98990.50
2023-05-16T15:32:44.720Z,98980.13
2023-05-16T15:35:13.433Z,98986.34
2023-05-16T15:37:45.874Z,98984.16
2023-05-16T15:40:16.420Z,98984.72
2023-05-16T15:42:46.446Z,98980.50
2023-05-16T15:45:15.123Z,98977.75
2023-05-16T15:47:44.011Z,98975.66
2023-05-16T15:50:13.564Z,98972.53
2023-05-16T15:57:31.883Z,98975.03
2023-05-16T16:00:01.992Z,98976.94
2023-05-16T16:02:45.571Z,98979.66
2023-05-16T16:05:14.828Z,98974.28
2023-05-16T16:07:44.426Z,98970.59
2023-05-16T16:10:14.168Z,98966.00
2023-05-16T16:12:42.845Z,98961.75
2023-05-16T16:15:13.518Z,98957.78
2023-05-16T16:17:42.184Z,98952.19
2023-05-16T16:20:12.205Z,98952.75
2023-05-16T16:22:40.860Z,98951.47
2023-05-16T16:25:10.246Z,98957.47
2023-05-16T16:27:39.015Z,98958.03
2023-05-16T16:30:09.962Z,98950.97
2023-05-16T16:32:40.362Z,98954.47
2023-05-16T16:35:11.753Z,98955.84
2023-05-16T16:37:43.005Z,98959.84
2023-05-16T16:40:17.874Z,98958.50
2023-05-16T16:42:46.888Z,98963.88
2023-05-16T16:45:15.679Z,98962.81
2023-05-16T16:47:46.102Z,98968.63
2023-05-16T16:50:15.066Z,98968.69
2023-05-16T16:52:43.756Z,98970.63
2023-05-16T16:55:13.110Z,98975.19
2023-05-16T16:57:42.462Z,98974.03
2023-05-16T17:00:14.194Z,98979.19
2023-05-16T17:02:43.344Z,98979.50
2023-05-16T17:05:13.745Z,98980.56
2023-05-16T17:07:42.430Z,98987.53
2023-05-16T17:10:12.037Z,98982.44
2023-05-16T17:12:46.963Z,98992.66
2023-05-16T17:15:15.811Z,99002.63
2023-05-16T17:17:44.790Z,98990.78
2023-05-16T17:20:15.164Z,98991.84
2023-05-16T17:22:44.810Z,99001.06
2023-05-16T17:25:13.575Z,98997.84
2023-05-16T17:27:43.314Z,98987.06
2023-05-16T17:30:13.369Z,98992.75
2023-05-16T17:32:42.101Z,98990.88
2023-05-16T17:35:10.759Z,98989.78
2023-05-16T17:37:41.475Z,98991.94
2023-05-16T17:40:16.810Z,99003.25
2023-05-16T17:42:47.045Z,99002.69
2023-05-16T17:45:17.130Z,99001.31
2023-05-16T17:47:46.256Z,99002.84
2023-05-16T17:50:14.932Z,99003.09
2023-05-16T17:52:45.522Z,99007.41
2023-05-16T17:55:14.823Z,99003.06
2023-05-16T17:57:43.845Z,98996.53
2023-05-16T18:00:15.269Z,99006.16
2023-05-16T18:02:44.596Z,99005.06
2023-05-16T18:05:16.590Z,99015.81
2023-05-16T18:07:46.985Z,99014.13
2023-05-16T18:10:15.809Z,99014.56
2023-05-16T18:12:44.886Z,99014.25
2023-05-16T18:15:13.720Z,99007.97
2023-05-16T18:17:42.799Z,99001.44
2023-05-16T18:20:13.185Z,99013.28
2023-05-16T18:22:43.727Z,99018.09
2023-05-16T18:25:14.017Z,99022.31
2023-05-16T18:27:42.722Z,99020.25
2023-05-16T18:30:13.994Z,99020.47
2023-05-16T18:32:43.738Z,99021.06
2023-05-16T18:35:13.243Z,99022.16
2023-05-16T18:37:44.117Z,99021.13
2023-05-16T18:40:15.716Z,99030.63
2023-05-16T18:42:45.246Z,99032.63
2023-05-16T18:45:13.981Z,99033.78
2023-05-16T18:47:42.749Z,99047.63
2023-05-16T18:50:12.532Z,99042.56
2023-05-16T18:52:44.786Z,99050.56
2023-05-16T18:55:15.284Z,99057.31
2023-05-16T18:57:45.434Z,99053.81
2023-05-16T19:00:15.276Z,99066.19
2023-05-16T19:02:44.045Z,99066.09
2023-05-16T19:05:21.850Z,99074.59
2023-05-16T19:07:53.909Z,99079.16
2023-05-16T19:10:25.772Z,99086.31
2023-05-16T19:12:54.669Z,99087.13
2023-05-16T19:15:23.524Z,99087.97
2023-05-16T19:17:52.318Z,99080.47
2023-05-16T19:20:21.373Z,99085.94
2023-05-16T19:22:50.658Z,99086.41
2023-05-16T19:25:19.303Z,99095.25
2023-05-16T19:27:49.485Z,99091.34
2023-05-16T19:30:18.425Z,99088.56
2023-05-16T19:32:55.146Z,99088.25
2023-05-16T19:35:24.450Z,99090.81
2023-05-16T19:37:53.112Z,99091.38
2023-05-16T19:40:21.902Z,99087.44
2023-05-16T19:42:52.162Z,99089.88
2023-05-16T19:45:20.928Z,99091.63
2023-05-16T19:47:49.817Z,99096.31
2023-05-16T19:50:19.416Z,99100.50
2023-05-16T19:52:48.273Z,99097.56
2023-05-16T19:55:17.097Z,99109.69
2023-05-16T19:57:46.044Z,99124.50
2023-05-16T20:00:17.304Z,99126.97
2023-05-16T20:02:46.189Z,99130.34
2023-05-16T20:05:19.949Z,99137.78
2023-05-16T20:07:49.026Z,99137.16
2023-05-16T20:10:19.791Z,99126.53
2023-05-16T20:12:50.040Z,99127.19
2023-05-16T20:15:20.261Z,99126.53
2023-05-16T20:17:49.356Z,99133.00
2023-05-16T20:20:18.167Z,99135.53
2023-05-16T20:22:46.930Z,99133.75
2023-05-16T20:25:15.950Z,99138.41
2023-05-16T20:27:44.860Z,99134.91
2023-05-16T20:30:15.245Z,99142.84
2023-05-16T20:32:45.639Z,99136.06
2023-05-16T20:35:15.198Z,99136.66
2023-05-16T20:37:44.933Z,99135.59
2023-05-16T20:40:14.175Z,99140.03
2023-05-16T20:42:43.077Z,99145.81
2023-05-16T20:45:12.717Z,99144.25
2023-05-16T20:47:41.591Z,99148.53
2023-05-16T20:50:12.652Z,99147.34
2023-05-16T20:52:41.444Z,99152.97
2023-05-16T20:55:10.817Z,99152.50
2023-05-16T20:57:41.682Z,99150.88
2023-05-16T21:00:14.025Z,99148.78
2023-05-16T21:02:42.832Z,99150.41
2023-05-16T21:05:24.198Z,99165.50
2023-05-16T21:08:01.628Z,99165.56
2023-05-16T21:10:30.821Z,99166.69
2023-05-16T21:12:59.552Z,99161.28
2023-05-16T21:15:28.829Z,99165.22
2023-05-16T21:17:58.132Z,99165.81
2023-05-16T21:20:30.234Z,99170.50
2023-05-16T21:22:59.089Z,99173.47
2023-05-16T21:25:27.991Z,99166.56
2023-05-16T21:27:56.805Z,99176.81
2023-05-16T21:30:26.889Z,99175.25
2023-05-16T21:32:55.766Z,99182.59
2023-05-16T21:35:25.304Z,99174.94
2023-05-16T21:37:55.522Z,99182.00
2023-05-16T21:40:26.027Z,99178.09
2023-05-16T21:42:54.874Z,99176.88
2023-05-16T21:45:23.820Z,99182.44
2023-05-16T21:47:52.611Z,99184.88
2023-05-16T21:50:21.652Z,99184.00
2023-05-16T21:52:50.480Z,99189.84
2023-05-16T21:55:20.700Z,99190.03
2023-05-16T21:57:49.422Z,99190.09
2023-05-16T22:00:19.275Z,99187.59
2023-05-16T22:02:48.726Z,99193.94
2023-05-16T22:05:19.270Z,99197.06
2023-05-16T22:07:48.232Z,99202.69
2023-05-16T22:10:18.605Z,99209.53
2023-05-16T22:12:48.820Z,99206.69
2023-05-16T22:15:17.576Z,99206.41
2023-05-16T22:17:48.193Z,99209.94
2023-05-16T22:20:17.229Z,99202.78
2023-05-16T22:22:46.079Z,99210.56
2023-05-16T22:25:18.019Z,99213.09
2023-05-16T22:27:48.354Z,99214.50
2023-05-16T22:30:17.184Z,99220.41
2023-05-16T22:32:47.125Z,99224.03
2023-05-16T22:35:16.193Z,99223.19
2023-05-16T22:37:44.928Z,99220.63
2023-05-16T22:40:13.843Z,99222.81
2023-05-16T22:42:42.591Z,99229.41
2023-05-16T22:45:13.137Z,99230.19
2023-05-16T22:47:41.974Z,99229.09
2023-05-16T22:50:12.563Z,99225.66
2023-05-16T22:52:42.018Z,99232.75
2023-05-16T22:55:11.827Z,99230.91
2023-05-16T22:57:40.572Z,99232.03
2023-05-16T23:00:12.631Z,99235.47
2023-05-16T23:02:41.702Z,99237.25
2023-05-16T23:05:10.888Z,99238.47
2023-05-16T23:07:39.549Z,99252.81
2023-05-16T23:10:10.461Z,99252.84
2023-05-16T23:12:39.209Z,99256.75
2023-05-16T23:15:10.448Z,99258.22
2023-05-16T23:17:40.867Z,99248.56
2023-05-16T23:20:10.563Z,99254.94
2023-05-16T23:22:39.337Z,99251.59
2023-05-16T23:25:10.159Z,99249.97
2023-05-16T23:27:38.888Z,99257.03
2023-05-16T23:30:09.783Z,99253.00
2023-05-16T23:32:40.029Z,99257.03
2023-05-16T23:35:09.772Z,99257.47
2023-05-16T23:37:38.559Z,99272.66
2023-05-16T23:40:09.507Z,99269.31
2023-05-16T23:42:39.344Z,99271.56
2023-05-16T23:45:10.250Z,99275.47
2023-05-16T23:47:40.466Z,99285.41
2023-05-16T23:50:10.561Z,99283.81
2023-05-16T23:52:39.382Z,99287.78
2023-05-16T23:55:09.516Z,99282.25
2023-05-16T23:57:38.687Z,99273.81
